createdAt,value
2022-10-19T00:01:13.731Z,6.32
2022-10-19T00:03:42.433Z,6.20
2022-10-19T00:06:38.799Z,6.55
2022-10-19T00:09:12.217Z,6.35
2022-10-19T00:11:41.879Z,6.60
2022-10-19T00:14:14.471Z,6.07
2022-10-19T00:16:45.398Z,6.57
2022-10-19T00:19:18.364Z,6.43
2022-10-19T00:21:45.816Z,6.72
2022-10-19T00:24:12.926Z,6.00
2022-10-19T00:26:40.137Z,5.75
2022-10-19T00:29:07.795Z,5.68
2022-10-19T00:31:36.217Z,5.60
2022-10-19T00:34:03.421Z,5.95
2022-10-19T00:36:36.530Z,5.68
2022-10-19T00:39:06.499Z,5.65
2022-10-19T00:41:35.725Z,6.32
2022-10-19T00:44:11.657Z,5.95
2022-10-19T00:46:42.800Z,5.00
2022-10-19T00:49:14.408Z,4.95
2022-10-19T00:51:45.785Z,5.85
2022-10-19T00:54:14.005Z,5.45
2022-10-19T00:56:43.107Z,5.20
2022-10-19T00:59:12.400Z,5.32
2022-10-19T01:01:41.424Z,5.30
2022-10-19T01:04:10.641Z,5.10
2022-10-19T01:06:38.873Z,5.13
2022-10-19T01:09:06.766Z,5.22
2022-10-19T01:11:45.904Z,5.47
2022-10-19T01:14:50.004Z,4.90
2022-10-19T01:17:26.509Z,5.38
2022-10-19T01:20:23.109Z,4.68
2022-10-19T01:23:20.494Z,5.13
2022-10-19T01:26:08.882Z,4.93
2022-10-19T01:28:48.755Z,4.68
2022-10-19T01:31:31.236Z,4.63
2022-10-19T01:34:17.373Z,5.50
2022-10-19T01:37:10.535Z,4.80
2022-10-19T01:39:53.738Z,4.75
2022-10-19T01:42:38.503Z,3.95
2022-10-19T01:45:15.589Z,4.65
2022-10-19T01:47:53.280Z,4.68
2022-10-19T01:50:29.656Z,4.18
2022-10-19T01:52:59.109Z,4.57
2022-10-19T01:55:27.783Z,4.63
2022-10-19T01:57:59.792Z,4.93
2022-10-19T02:00:28.249Z,4.22
2022-10-19T02:02:56.222Z,4.63
2022-10-19T02:05:28.773Z,4.47
2022-10-19T02:08:00.113Z,4.85
2022-10-19T02:10:28.879Z,4.38
2022-10-19T02:12:56.960Z,4.43
2022-10-19T02:15:27.414Z,4.82
2022-10-19T02:18:00.153Z,4.57
2022-10-19T02:20:28.682Z,5.38
2022-10-19T02:22:56.844Z,4.93
2022-10-19T02:25:25.523Z,5.20
2022-10-19T02:27:53.107Z,5.53
2022-10-19T02:30:21.862Z,5.25
2022-10-19T02:32:50.775Z,5.10
2022-10-19T02:35:18.254Z,5.50
2022-10-19T02:37:45.562Z,5.32
2022-10-19T02:40:13.477Z,4.65
2022-10-19T02:42:56.584Z,5.40
2022-10-19T02:45:30.723Z,4.97
2022-10-19T02:48:11.425Z,4.55
2022-10-19T02:50:38.464Z,4.45
2022-10-19T02:53:05.446Z,4.65
2022-10-19T02:55:32.401Z,4.32
2022-10-19T02:57:59.499Z,4.43
2022-10-19T03:00:26.478Z,4.80
2022-10-19T03:02:53.459Z,4.30
2022-10-19T03:05:21.027Z,5.18
2022-10-19T03:07:49.099Z,5.07
2022-10-19T03:10:16.334Z,4.40
2022-10-19T03:12:43.280Z,4.65
2022-10-19T03:15:14.845Z,4.93
2022-10-19T03:17:42.078Z,4.65
2022-10-19T03:20:09.996Z,4.38
2022-10-19T03:22:37.207Z,4.90
2022-10-19T03:25:04.660Z,3.97
2022-10-19T03:27:31.890Z,4.45
2022-10-19T03:29:59.038Z,4.72
2022-10-19T03:32:26.053Z,5.07
2022-10-19T03:34:52.891Z,4.90
2022-10-19T03:37:20.106Z,6.38
2022-10-19T03:39:47.066Z,7.18
2022-10-19T03:42:14.102Z,7.68
2022-10-19T03:44:41.871Z,8.30
2022-10-19T03:47:08.834Z,7.60
2022-10-19T03:49:39.433Z,6.05
2022-10-19T03:52:07.490Z,5.50
2022-10-19T03:54:34.416Z,5.22
2022-10-19T03:57:01.411Z,5.47
2022-10-19T03:59:28.411Z,5.72
2022-10-19T04:01:56.374Z,4.90
2022-10-19T04:04:23.360Z,5.32
2022-10-19T04:06:51.347Z,5.63
2022-10-19T04:09:21.191Z,6.03
2022-10-19T04:11:49.397Z,6.28
2022-10-19T04:14:31.603Z,5.93
2022-10-19T04:17:03.320Z,5.40
2022-10-19T04:19:31.615Z,6.10
2022-10-19T04:21:58.750Z,5.70
2022-10-19T04:24:25.853Z,5.90
2022-10-19T04:26:54.363Z,6.32
2022-10-19T04:29:26.438Z,5.75
2022-10-19T04:31:56.760Z,5.45
2022-10-19T04:34:24.403Z,5.20
2022-10-19T04:36:52.643Z,5.70
2022-10-19T04:39:19.563Z,5.32
2022-10-19T04:41:46.537Z,5.43
2022-10-19T04:44:13.527Z,5.88
2022-10-19T04:46:40.678Z,5.72
2022-10-19T04:49:08.409Z,5.80
2022-10-19T04:51:35.609Z,5.22
2022-10-19T04:54:04.226Z,5.80
2022-10-19T04:56:32.526Z,5.80
2022-10-19T04:59:00.855Z,5.10
2022-10-19T05:01:30.227Z,5.88
2022-10-19T05:04:00.281Z,5.60
2022-10-19T05:06:27.953Z,5.45
2022-10-19T05:08:55.093Z,5.85
2022-10-19T05:11:22.141Z,6.25
2022-10-19T05:13:49.165Z,7.60
2022-10-19T05:16:19.066Z,8.27
2022-10-19T05:18:50.900Z,7.88
2022-10-19T05:21:18.695Z,6.65
2022-10-19T05:23:45.759Z,6.18
2022-10-19T05:26:17.786Z,5.50
2022-10-19T05:28:49.953Z,4.70
2022-10-19T05:31:20.200Z,4.35
2022-10-19T05:33:47.352Z,3.78
2022-10-19T05:36:19.639Z,3.97
2022-10-19T05:38:49.514Z,3.42
2022-10-19T05:41:17.756Z,3.83
2022-10-19T05:43:46.249Z,4.13
2022-10-19T05:46:17.542Z,3.78
2022-10-19T05:48:45.359Z,3.53
2022-10-19T05:51:16.411Z,3.83
2022-10-19T05:53:44.297Z,3.92
2022-10-19T05:56:17.474Z,3.70
2022-10-19T05:58:45.068Z,4.65
2022-10-19T06:01:12.228Z,3.85
2022-10-19T06:03:39.114Z,3.80
2022-10-19T06:06:07.728Z,3.75
2022-10-19T06:08:35.530Z,3.30
2022-10-19T06:11:11.929Z,3.38
2022-10-19T06:13:40.647Z,3.00
2022-10-19T06:16:09.462Z,3.38
2022-10-19T06:18:37.322Z,3.50
2022-10-19T06:21:06.754Z,3.90
2022-10-19T06:23:35.276Z,3.42
2022-10-19T06:26:04.490Z,3.67
2022-10-19T06:28:31.459Z,3.80
2022-10-19T06:30:59.440Z,3.70
2022-10-19T06:33:27.423Z,3.20
2022-10-19T06:35:54.696Z,3.90
2022-10-19T06:38:21.851Z,3.90
2022-10-19T06:40:51.509Z,3.50
2022-10-19T06:43:18.462Z,4.10
2022-10-19T06:45:45.496Z,3.63
2022-10-19T06:48:12.416Z,3.60
2022-10-19T06:50:39.475Z,3.55
2022-10-19T06:53:06.390Z,3.35
2022-10-19T06:55:33.343Z,3.70
2022-10-19T06:58:02.513Z,3.35
2022-10-19T07:00:30.622Z,3.72
2022-10-19T07:02:59.249Z,3.20
2022-10-19T07:05:26.262Z,3.63
2022-10-19T07:07:53.407Z,4.00
2022-10-19T07:10:20.476Z,3.50
2022-10-19T07:12:47.417Z,3.70
2022-10-19T07:15:14.526Z,4.30
2022-10-19T07:17:41.785Z,4.05
2022-10-19T07:20:10.836Z,3.78
2022-10-19T07:22:37.826Z,3.45
2022-10-19T07:25:05.151Z,4.55
2022-10-19T07:27:37.367Z,3.33
2022-10-19T07:30:04.858Z,3.50
2022-10-19T07:32:31.876Z,3.05
2022-10-19T07:34:58.773Z,3.70
2022-10-19T07:37:26.396Z,3.35
2022-10-19T07:39:53.827Z,3.85
2022-10-19T07:44:47.717Z,3.05
2022-10-19T07:47:14.643Z,3.40
2022-10-19T07:49:42.215Z,2.83
2022-10-19T07:52:10.599Z,2.97
2022-10-19T07:54:37.786Z,3.10
2022-10-19T07:57:04.898Z,3.10
2022-10-19T07:59:31.849Z,3.00
2022-10-19T08:02:02.341Z,2.80
2022-10-19T08:04:56.017Z,2.58
2022-10-19T08:07:16.493Z,3.00
2022-10-19T08:09:58.807Z,3.00
2022-10-19T08:12:25.735Z,3.22
2022-10-19T08:14:53.820Z,3.00
2022-10-19T08:17:20.788Z,2.90
2022-10-19T08:19:47.932Z,2.13
2022-10-19T08:22:15.560Z,2.97
2022-10-19T08:24:42.626Z,2.22
2022-10-19T08:27:09.718Z,2.95
2022-10-19T08:29:36.840Z,3.28
2022-10-19T08:32:03.847Z,3.03
2022-10-19T08:34:30.858Z,3.40
2022-10-19T08:36:57.764Z,2.90
2022-10-19T08:39:25.626Z,2.33
2022-10-19T08:42:06.787Z,2.30
2022-10-19T08:44:49.749Z,2.38
2022-10-19T08:47:35.802Z,1.83
2022-10-19T08:52:34.615Z,2.00
2022-10-19T08:55:09.702Z,2.35
2022-10-19T08:58:08.477Z,2.15
2022-10-19T09:00:43.568Z,2.00
2022-10-19T09:03:56.623Z,2.40
2022-10-19T09:06:29.583Z,2.38
2022-10-19T09:08:58.025Z,2.65
2022-10-19T09:11:31.299Z,2.80
2022-10-19T09:14:16.314Z,2.60
2022-10-19T09:16:43.626Z,2.40
2022-10-19T09:19:22.975Z,2.60
2022-10-19T09:21:56.544Z,2.45
2022-10-19T09:24:38.120Z,2.22
2022-10-19T09:27:11.094Z,2.10
2022-10-19T09:29:46.355Z,1.80
2022-10-19T09:32:32.492Z,1.70
2022-10-19T09:35:26.418Z,2.03
2022-10-19T09:37:55.335Z,1.17
2022-10-19T09:40:27.444Z,1.35
2022-10-19T09:42:58.736Z,1.17
2022-10-19T09:45:45.243Z,1.30
2022-10-19T09:48:44.377Z,1.05
2022-10-19T09:51:14.077Z,1.00
2022-10-19T09:53:56.239Z,1.02
2022-10-19T09:56:24.883Z,0.90
2022-10-19T09:58:55.238Z,0.82
2022-10-19T10:01:40.151Z,0.70
2022-10-19T10:04:18.972Z,1.00
2022-10-19T10:06:48.377Z,0.98
2022-10-19T10:09:17.837Z,1.60
2022-10-19T10:11:48.077Z,1.60
2022-10-19T10:14:22.965Z,0.90
2022-10-19T10:17:02.243Z,1.10
2022-10-19T10:19:31.781Z,0.85
2022-10-19T10:21:59.950Z,0.70
2022-10-19T10:24:28.050Z,0.70
2022-10-19T10:27:00.757Z,0.80
2022-10-19T10:29:30.276Z,0.90
2022-10-19T10:32:06.666Z,1.00
2022-10-19T10:35:01.053Z,0.70
2022-10-19T10:37:41.358Z,0.80
2022-10-19T10:40:35.132Z,0.50
2022-10-19T10:43:09.380Z,0.70
2022-10-19T10:45:48.544Z,0.52
2022-10-19T10:48:37.386Z,0.75
2022-10-19T10:51:19.031Z,0.88
2022-10-19T10:53:46.813Z,0.70
2022-10-19T10:56:30.017Z,0.85
2022-10-19T10:59:10.259Z,0.60
2022-10-19T11:01:41.856Z,0.90
2022-10-19T11:04:19.931Z,1.00
2022-10-19T11:06:55.024Z,0.68
2022-10-19T11:09:44.881Z,0.73
2022-10-19T11:12:15.963Z,0.50
2022-10-19T11:14:56.514Z,0.80
2022-10-19T11:17:30.228Z,0.93
2022-10-19T11:19:57.367Z,0.50
2022-10-19T11:22:40.604Z,0.80
2022-10-19T11:25:19.552Z,0.77
2022-10-19T11:28:14.872Z,0.50
2022-10-19T11:31:10.952Z,0.80
2022-10-19T11:33:51.039Z,0.85
2022-10-19T11:36:30.369Z,0.50
2022-10-19T11:39:18.928Z,0.50
2022-10-19T11:41:57.223Z,0.40
2022-10-19T11:44:33.608Z,0.55
2022-10-19T11:47:24.644Z,0.38
2022-10-19T11:49:57.959Z,0.60
2022-10-19T11:52:40.304Z,0.75
2022-10-19T11:55:19.311Z,1.00
2022-10-19T11:58:08.951Z,0.75
2022-10-19T12:00:49.078Z,0.77
2022-10-19T12:03:36.648Z,0.70
2022-10-19T12:06:16.853Z,0.60
2022-10-19T12:08:56.080Z,0.60
2022-10-19T12:11:28.568Z,0.95
2022-10-19T12:14:08.361Z,1.00
2022-10-19T12:16:54.509Z,1.08
2022-10-19T12:21:53.538Z,0.60
2022-10-19T12:24:24.046Z,0.60
2022-10-19T12:26:53.305Z,0.70
2022-10-19T12:29:28.871Z,0.90
2022-10-19T12:31:57.744Z,1.23
2022-10-19T12:34:30.956Z,0.90
2022-10-19T12:37:18.463Z,1.00
2022-10-19T12:39:45.972Z,1.13
2022-10-19T12:42:28.872Z,0.90
2022-10-19T12:45:30.485Z,1.00
2022-10-19T12:48:16.025Z,0.52
2022-10-19T12:50:49.493Z,1.10
2022-10-19T12:53:38.708Z,0.95
2022-10-19T12:56:09.855Z,0.77
2022-10-19T12:58:47.960Z,1.00
2022-10-19T13:01:33.871Z,1.50
2022-10-19T13:04:18.215Z,0.85
2022-10-19T13:06:49.419Z,0.90
2022-10-19T13:09:38.470Z,1.05
2022-10-19T13:12:17.963Z,1.20
2022-10-19T13:14:52.493Z,0.77
2022-10-19T13:17:37.686Z,0.85
2022-10-19T13:20:14.061Z,0.90
2022-10-19T13:22:50.304Z,0.75
2022-10-19T13:25:17.478Z,1.00
2022-10-19T13:27:45.800Z,1.00
2022-10-19T13:31:02.459Z,0.80
2022-10-19T13:33:45.022Z,1.17
2022-10-19T13:36:13.017Z,2.00
2022-10-19T13:39:14.448Z,2.25
2022-10-19T13:41:50.445Z,1.65
2022-10-19T13:44:25.535Z,1.58
2022-10-19T13:47:29.631Z,1.20
2022-10-19T13:50:03.499Z,0.65
2022-10-19T13:53:04.373Z,0.40
2022-10-19T13:55:48.425Z,0.55
2022-10-19T13:58:27.747Z,0.73
2022-10-19T14:01:36.785Z,1.30
2022-10-19T14:04:21.345Z,1.10
2022-10-19T14:06:56.524Z,1.65
2022-10-19T14:10:06.906Z,1.50
2022-10-19T14:12:41.802Z,1.90
2022-10-19T14:15:28.098Z,1.35
2022-10-19T14:17:56.370Z,1.30
2022-10-19T14:20:38.323Z,1.00
2022-10-19T14:23:25.796Z,1.27
2022-10-19T14:25:57.246Z,1.30
2022-10-19T14:28:26.437Z,1.10
2022-10-19T14:30:57.823Z,1.10
2022-10-19T14:33:26.059Z,1.08
2022-10-19T14:35:54.132Z,0.95
2022-10-19T14:38:40.978Z,1.58
2022-10-19T14:41:28.146Z,1.17
2022-10-19T14:43:56.581Z,1.17
2022-10-19T14:46:32.996Z,1.52
2022-10-19T14:49:06.472Z,1.70
2022-10-19T14:51:46.322Z,1.25
2022-10-19T14:54:22.570Z,1.10
2022-10-19T14:57:03.894Z,1.20
2022-10-19T15:02:35.713Z,1.20
2022-10-19T15:05:05.445Z,1.38
2022-10-19T15:07:41.227Z,1.50
2022-10-19T15:10:36.045Z,1.80
2022-10-19T15:13:06.985Z,2.90
2022-10-19T15:15:36.035Z,3.05
2022-10-19T15:18:06.320Z,3.10
2022-10-19T15:20:54.873Z,3.15
2022-10-19T15:23:47.443Z,3.17
2022-10-19T15:26:20.252Z,3.00
2022-10-19T15:28:48.993Z,2.80
2022-10-19T15:31:29.993Z,2.78
2022-10-19T15:34:02.207Z,3.38
2022-10-19T15:36:31.372Z,3.30
2022-10-19T15:39:06.339Z,5.00
2022-10-19T15:41:45.167Z,6.38
2022-10-19T15:44:40.758Z,8.32
2022-10-19T15:47:19.021Z,8.38
2022-10-19T15:49:51.692Z,6.90
2022-10-19T15:52:21.789Z,6.95
2022-10-19T15:54:53.557Z,6.68
2022-10-19T15:57:36.020Z,6.90
2022-10-19T16:00:17.904Z,7.88
2022-10-19T16:02:45.130Z,7.05
2022-10-19T16:05:12.866Z,6.30
2022-10-19T16:07:41.406Z,6.18
2022-10-19T16:10:15.326Z,5.03
2022-10-19T16:12:42.513Z,5.03
2022-10-19T16:15:16.513Z,4.13
2022-10-19T16:17:46.334Z,4.50
2022-10-19T16:20:13.761Z,3.33
2022-10-19T16:22:40.754Z,4.03
2022-10-19T16:25:08.050Z,4.90
2022-10-19T16:27:35.222Z,5.13
2022-10-19T16:30:03.367Z,6.40
2022-10-19T16:32:30.584Z,4.18
2022-10-19T16:34:57.624Z,3.00
2022-10-19T16:37:24.766Z,2.42
2022-10-19T16:39:52.256Z,2.28
2022-10-19T16:42:24.575Z,4.13
2022-10-19T16:44:54.880Z,4.10
2022-10-19T16:47:21.972Z,4.28
2022-10-19T16:49:57.113Z,4.55
2022-10-19T16:52:24.218Z,6.85
2022-10-19T16:54:51.310Z,8.32
2022-10-19T16:57:18.387Z,12.40
2022-10-19T16:59:45.608Z,13.13
2022-10-19T17:02:13.826Z,11.75
2022-10-19T17:04:41.778Z,12.20
2022-10-19T17:07:08.766Z,11.40
2022-10-19T17:09:43.420Z,9.15
2022-10-19T17:12:12.285Z,5.45
2022-10-19T17:14:41.167Z,3.63
2022-10-19T17:17:09.468Z,4.00
2022-10-19T17:19:37.369Z,3.33
2022-10-19T17:22:05.653Z,3.40
2022-10-19T17:24:33.785Z,3.70
2022-10-19T17:27:03.497Z,4.20
2022-10-19T17:29:30.617Z,3.10
2022-10-19T17:31:58.220Z,3.63
2022-10-19T17:34:25.325Z,5.00
2022-10-19T17:36:52.383Z,4.43
2022-10-19T17:39:25.699Z,4.15
2022-10-19T17:42:02.036Z,3.78
2022-10-19T17:44:31.671Z,4.22
2022-10-19T17:47:00.455Z,4.65
2022-10-19T17:49:29.862Z,5.07
2022-10-19T17:51:57.233Z,3.75
2022-10-19T17:54:24.343Z,3.80
2022-10-19T17:56:51.541Z,4.57
2022-10-19T17:59:30.147Z,4.70
2022-10-19T18:02:04.052Z,4.25
2022-10-19T18:04:31.015Z,4.00
2022-10-19T18:06:58.073Z,4.50
2022-10-19T18:09:25.190Z,4.60
2022-10-19T18:11:52.953Z,5.35
2022-10-19T18:14:20.706Z,4.93
2022-10-19T18:16:48.046Z,4.65
2022-10-19T18:19:16.794Z,3.63
2022-10-19T18:21:47.426Z,2.78
2022-10-19T18:24:19.828Z,2.40
2022-10-19T18:26:48.424Z,2.55
2022-10-19T18:29:21.497Z,2.65
2022-10-19T18:31:51.776Z,2.97
2022-10-19T18:34:21.468Z,3.25
2022-10-19T18:36:49.053Z,3.17
2022-10-19T18:39:16.674Z,2.88
2022-10-19T18:41:43.709Z,2.60
2022-10-19T18:44:13.545Z,2.38
2022-10-19T18:46:41.087Z,2.17
2022-10-19T18:49:09.161Z,2.25
2022-10-19T18:51:36.709Z,2.00
2022-10-19T18:54:04.858Z,2.40
2022-10-19T18:56:33.810Z,2.13
2022-10-19T18:59:00.769Z,2.50
2022-10-19T19:01:28.712Z,2.38
2022-10-19T19:03:58.644Z,2.78
2022-10-19T19:06:30.277Z,3.65
2022-10-19T19:08:59.801Z,3.08
2022-10-19T19:11:35.854Z,2.53
2022-10-19T19:14:15.586Z,2.78
2022-10-19T19:16:44.429Z,2.78
2022-10-19T19:19:15.045Z,3.13
2022-10-19T19:21:44.514Z,2.72
2022-10-19T19:24:15.910Z,2.90
2022-10-19T19:26:48.549Z,2.88
2022-10-19T19:29:16.316Z,2.35
2022-10-19T19:31:43.374Z,4.13
2022-10-19T19:34:10.705Z,14.40
2022-10-19T19:39:07.048Z,22.98
2022-10-19T19:41:34.325Z,28.15
2022-10-19T19:44:01.542Z,18.70
2022-10-19T19:46:30.919Z,8.38
2022-10-19T19:49:03.969Z,4.50
2022-10-19T19:51:32.522Z,2.95
2022-10-19T19:54:00.110Z,2.30
2022-10-19T19:56:30.502Z,2.22
2022-10-19T19:59:00.066Z,2.05
2022-10-19T20:01:27.441Z,2.00
2022-10-19T20:03:57.345Z,1.90
2022-10-19T20:06:26.018Z,2.00
2022-10-19T20:08:55.542Z,1.95
2022-10-19T20:11:24.437Z,2.15
2022-10-19T20:13:52.487Z,2.47
2022-10-19T20:16:29.408Z,2.97
2022-10-19T20:19:17.137Z,4.18
2022-10-19T20:21:44.814Z,4.97
2022-10-19T20:24:12.129Z,3.90
2022-10-19T20:26:39.494Z,3.00
2022-10-19T20:29:06.637Z,2.83
2022-10-19T20:31:40.152Z,2.70
2022-10-19T20:34:10.725Z,3.10
2022-10-19T20:36:38.355Z,4.03
2022-10-19T20:39:05.676Z,3.70
2022-10-19T20:41:32.788Z,4.63
2022-10-19T20:43:59.870Z,5.82
2022-10-19T20:46:29.782Z,5.15
2022-10-19T20:49:00.030Z,3.72
2022-10-19T20:51:31.969Z,2.30
2022-10-19T20:54:01.576Z,2.00
2022-10-19T20:56:31.515Z,1.90
2022-10-19T21:01:32.041Z,2.92
2022-10-19T21:04:01.567Z,2.60
2022-10-19T21:06:30.414Z,2.20
2022-10-19T21:08:58.671Z,1.88
2022-10-19T21:11:28.905Z,1.90
2022-10-19T21:14:00.381Z,1.80
2022-10-19T21:16:30.011Z,1.50
2022-10-19T21:18:57.388Z,1.80
2022-10-19T21:21:29.942Z,1.42
2022-10-19T21:24:00.287Z,1.90
2022-10-19T21:26:28.711Z,1.50
2022-10-19T21:28:56.632Z,1.55
2022-10-19T21:31:25.498Z,1.60
2022-10-19T21:33:53.149Z,1.00
2022-10-19T21:36:25.153Z,1.30
2022-10-19T21:38:53.157Z,1.25
2022-10-19T21:41:25.346Z,1.10
2022-10-19T21:43:54.693Z,1.55
2022-10-19T21:46:22.914Z,1.23
2022-10-19T21:48:50.759Z,1.10
2022-10-19T21:51:36.786Z,1.10
2022-10-19T21:56:38.649Z,1.10
2022-10-19T21:59:05.687Z,1.10
2022-10-19T22:01:38.715Z,1.20
2022-10-19T22:04:13.466Z,1.30
2022-10-19T22:06:41.459Z,1.00
2022-10-19T22:09:10.418Z,1.10
2022-10-19T22:11:37.365Z,1.10
2022-10-19T22:14:04.897Z,1.08
2022-10-19T22:16:35.350Z,1.10
2022-10-19T22:19:05.051Z,1.02
2022-10-19T22:21:33.426Z,1.10
2022-10-19T22:24:07.094Z,1.73
2022-10-19T22:26:36.795Z,1.60
2022-10-19T22:29:05.091Z,1.40
2022-10-19T22:31:33.357Z,1.20
2022-10-19T22:34:01.362Z,1.20
2022-10-19T22:36:28.476Z,1.00
2022-10-19T22:38:55.678Z,1.10
2022-10-19T22:41:22.831Z,1.20
2022-10-19T22:43:49.848Z,0.85
2022-10-19T22:46:16.951Z,0.82
2022-10-19T22:48:44.397Z,2.28
2022-10-19T22:51:11.675Z,4.10
2022-10-19T22:53:39.046Z,4.68
2022-10-19T22:56:08.072Z,5.13
2022-10-19T22:58:35.638Z,2.47
2022-10-19T23:01:11.764Z,1.40
2022-10-19T23:03:40.463Z,1.08
2022-10-19T23:06:09.851Z,0.90
2022-10-19T23:08:38.261Z,0.90
2022-10-19T23:11:05.986Z,0.90
2022-10-19T23:13:33.307Z,0.93
2022-10-19T23:16:00.581Z,0.80
2022-10-19T23:18:30.110Z,0.80
2022-10-19T23:21:00.065Z,1.23
2022-10-19T23:23:28.685Z,1.30
2022-10-19T23:26:05.067Z,1.20
2022-10-19T23:28:34.396Z,1.10
2022-10-19T23:31:13.723Z,1.08
2022-10-19T23:33:43.031Z,1.00
2022-10-19T23:36:21.731Z,1.25
2022-10-19T23:38:50.335Z,1.00
2022-10-19T23:41:18.018Z,1.30
2022-10-19T23:43:45.027Z,0.85
2022-10-19T23:46:12.783Z,1.02
2022-10-19T23:48:40.618Z,0.98
2022-10-19T23:51:09.915Z,1.10
2022-10-19T23:53:41.024Z,1.20
2022-10-19T23:56:19.586Z,1.00
2022-10-19T23:58:47.254Z,1.00
